createdAt,value
2023-05-10T00:00:32.370Z,99902.88
2023-05-10T00:03:00.894Z,99899.78
2023-05-10T00:05:29.293Z,99897.78
2023-05-10T00:07:57.621Z,99898.28
2023-05-10T00:10:25.996Z,99893.22
2023-05-10T00:12:54.197Z,99899.22
2023-05-10T00:15:22.752Z,99894.69
2023-05-10T00:17:52.691Z,99894.81
2023-05-10T00:20:21.481Z,99896.16
2023-05-10T00:22:49.818Z,99889.47
2023-05-10T00:25:18.360Z,99888.88
2023-05-10T00:27:46.731Z,99888.28
2023-05-10T00:30:15.262Z,99889.97
2023-05-10T00:32:44.507Z,99886.25
2023-05-10T00:35:14.380Z,99884.94
2023-05-10T00:37:42.770Z,99879.44
2023-05-10T00:40:11.853Z,99883.16
2023-05-10T00:42:40.243Z,99875.66
2023-05-10T00:45:09.850Z,99879.84
2023-05-10T00:47:38.241Z,99875.25
2023-05-10T00:50:07.922Z,99874.78
2023-05-10T00:52:37.912Z,99870.03
2023-05-10T00:55:08.304Z,99872.16
2023-05-10T00:57:36.652Z,99873.25
2023-05-10T01:00:05.990Z,99872.56
2023-05-10T01:02:36.223Z,99869.22
2023-05-10T01:05:06.380Z,99868.13
2023-05-10T01:07:34.699Z,99873.03
2023-05-10T01:10:04.371Z,99868.94
2023-05-10T01:12:32.751Z,99868.13
2023-05-10T01:15:03.381Z,99870.03
2023-05-10T01:17:33.062Z,99866.13
2023-05-10T01:20:01.670Z,99866.34
2023-05-10T01:22:55.497Z,99873.41
2023-05-10T01:25:39.484Z,99871.63
2023-05-10T01:28:32.278Z,99865.16
2023-05-10T01:31:20.623Z,99861.22
2023-05-10T01:33:57.078Z,99867.81
2023-05-10T01:36:32.667Z,99869.59
2023-05-10T01:39:04.669Z,99866.72
2023-05-10T01:41:41.997Z,99865.91
2023-05-10T01:44:18.931Z,99851.56
2023-05-10T01:46:53.077Z,99851.22
2023-05-10T01:49:28.026Z,99857.31
2023-05-10T01:52:04.234Z,99850.59
2023-05-10T01:54:35.227Z,99851.69
2023-05-10T01:57:07.417Z,99856.59
2023-05-10T01:59:41.793Z,99846.47
2023-05-10T02:02:13.112Z,99853.97
2023-05-10T02:04:44.555Z,99853.13
2023-05-10T02:07:14.298Z,99856.34
2023-05-10T02:09:48.488Z,99854.78
2023-05-10T02:12:18.317Z,99851.47
2023-05-10T02:14:47.394Z,99855.88
2023-05-10T02:17:16.530Z,99856.84
2023-05-10T02:19:49.076Z,99861.84
2023-05-10T02:22:19.263Z,99868.28
2023-05-10T02:24:49.729Z,99864.00
2023-05-10T02:27:19.455Z,99870.22
2023-05-10T02:29:49.047Z,99874.13
2023-05-10T02:32:18.817Z,99874.97
2023-05-10T02:34:52.966Z,99881.06
2023-05-10T02:37:22.744Z,99875.59
2023-05-10T02:39:52.302Z,99877.00
2023-05-10T02:42:23.912Z,99875.66
2023-05-10T02:44:58.289Z,99883.50
2023-05-10T02:47:26.838Z,99873.84
2023-05-10T02:49:57.790Z,99868.56
2023-05-10T02:52:29.515Z,99870.50
2023-05-10T02:55:02.855Z,99872.41
2023-05-10T02:57:35.080Z,99875.28
2023-05-10T03:00:04.366Z,99865.16
2023-05-10T03:02:33.531Z,99878.03
2023-05-10T03:05:04.144Z,99873.47
2023-05-10T03:07:32.596Z,99875.13
2023-05-10T03:10:01.276Z,99874.31
2023-05-10T03:12:37.835Z,99880.28
2023-05-10T03:15:13.409Z,99881.34
2023-05-10T03:17:50.010Z,99879.44
2023-05-10T03:20:26.829Z,99873.94
2023-05-10T03:23:01.507Z,99880.16
2023-05-10T03:25:31.673Z,99885.38
2023-05-10T03:28:03.208Z,99881.56
2023-05-10T03:30:32.500Z,99884.16
2023-05-10T03:33:06.601Z,99879.25
2023-05-10T03:35:38.605Z,99882.38
2023-05-10T03:38:08.011Z,99879.66
2023-05-10T03:40:36.448Z,99880.84
2023-05-10T03:43:05.141Z,99883.22
2023-05-10T03:45:33.920Z,99886.44
2023-05-10T03:48:02.245Z,99887.31
2023-05-10T03:50:30.474Z,99877.47
2023-05-10T03:53:00.071Z,99888.13
2023-05-10T03:55:30.562Z,99887.41
2023-05-10T03:57:59.326Z,99886.59
2023-05-10T04:00:27.902Z,99894.34
2023-05-10T04:02:57.464Z,99902.56
2023-05-10T04:05:25.959Z,99894.97
2023-05-10T04:07:55.047Z,99894.19
2023-05-10T04:10:24.758Z,99898.84
2023-05-10T04:12:53.074Z,99899.88
2023-05-10T04:15:21.377Z,99891.91
2023-05-10T04:17:49.777Z,99899.47
2023-05-10T04:20:18.678Z,99900.44
2023-05-10T04:22:47.227Z,99902.22
2023-05-10T04:25:15.797Z,99907.84
2023-05-10T04:27:45.449Z,99906.31
2023-05-10T04:30:14.293Z,99906.53
2023-05-10T04:32:42.732Z,99907.84
2023-05-10T04:35:12.213Z,99908.47
2023-05-10T04:37:40.445Z,99919.44
2023-05-10T04:40:10.020Z,99916.53
2023-05-10T04:42:38.700Z,99917.00
2023-05-10T04:45:10.486Z,99924.13
2023-05-10T04:47:39.228Z,99926.28
2023-05-10T04:50:08.824Z,99929.06
2023-05-10T04:52:37.463Z,99933.13
2023-05-10T04:55:08.476Z,99939.81
2023-05-10T04:57:36.678Z,99946.44
2023-05-10T05:00:05.991Z,99960.38
2023-05-10T05:02:35.753Z,99957.94
2023-05-10T05:05:04.261Z,99960.50
2023-05-10T05:07:32.722Z,99965.53
2023-05-10T05:10:01.065Z,99974.94
2023-05-10T05:12:29.267Z,99969.53
2023-05-10T05:14:57.745Z,99971.38
2023-05-10T05:17:26.471Z,99974.13
2023-05-10T05:19:56.793Z,99974.72
2023-05-10T05:22:28.496Z,99977.84
2023-05-10T05:24:56.861Z,99986.88
2023-05-10T05:27:27.197Z,99987.75
2023-05-10T05:29:55.515Z,99988.97
2023-05-10T05:32:23.936Z,99988.56
2023-05-10T05:34:52.849Z,99994.25
2023-05-10T05:37:23.665Z,100000.34
2023-05-10T05:39:52.182Z,99997.16
2023-05-10T05:42:20.391Z,100000.53
2023-05-10T05:44:48.588Z,100010.25
2023-05-10T05:47:17.073Z,100012.31
2023-05-10T05:49:46.920Z,100015.72
2023-05-10T05:52:15.342Z,100022.47
2023-05-10T05:54:44.973Z,100020.91
2023-05-10T05:57:16.934Z,100021.94
2023-05-10T05:59:45.227Z,100027.94
2023-05-10T06:02:13.530Z,100033.66
2023-05-10T06:04:44.666Z,100038.31
2023-05-10T06:07:13.255Z,100043.38
2023-05-10T06:09:41.477Z,100042.53
2023-05-10T06:12:12.729Z,100050.28
2023-05-10T06:14:40.990Z,100054.31
2023-05-10T06:17:09.271Z,100049.16
2023-05-10T06:19:37.819Z,100055.47
2023-05-10T06:22:06.266Z,100055.69
2023-05-10T06:24:34.537Z,100061.34
2023-05-10T06:27:03.122Z,100059.94
2023-05-10T06:29:32.903Z,100062.84
2023-05-10T06:32:01.141Z,100074.41
2023-05-10T06:34:31.255Z,100077.84
2023-05-10T06:37:01.931Z,100077.38
2023-05-10T06:39:30.649Z,100079.09
2023-05-10T06:41:59.395Z,100085.22
2023-05-10T06:44:35.329Z,100088.41
2023-05-10T06:47:03.559Z,100090.25
2023-05-10T06:49:32.006Z,100092.03
2023-05-10T06:52:00.451Z,100087.69
2023-05-10T06:54:28.769Z,100096.31
2023-05-10T06:56:57.142Z,100098.03
2023-05-10T06:59:25.499Z,100096.19
2023-05-10T07:01:55.339Z,100103.66
2023-05-10T07:04:23.669Z,100102.59
2023-05-10T07:06:52.005Z,100110.97
2023-05-10T07:09:20.670Z,100107.66
2023-05-10T07:11:48.972Z,100108.59
2023-05-10T07:14:17.215Z,100117.88
2023-05-10T07:16:45.836Z,100116.63
2023-05-10T07:19:15.924Z,100113.91
2023-05-10T07:21:44.396Z,100125.03
2023-05-10T07:24:12.769Z,100119.09
2023-05-10T07:26:41.190Z,100124.75
2023-05-10T07:29:09.463Z,100127.56
2023-05-10T07:31:38.034Z,100122.38
2023-05-10T07:34:06.436Z,100123.31
2023-05-10T07:36:36.160Z,100125.50
2023-05-10T07:39:04.568Z,100132.00
2023-05-10T07:41:35.108Z,100129.78
2023-05-10T07:44:03.904Z,100126.19
2023-05-10T07:46:32.326Z,100125.53
2023-05-10T07:49:00.940Z,100131.19
2023-05-10T07:51:29.868Z,100135.97
2023-05-10T07:54:00.064Z,100140.47
2023-05-10T07:56:30.704Z,100142.81
2023-05-10T07:58:59.192Z,100138.44
2023-05-10T08:01:28.780Z,100146.00
2023-05-10T08:03:57.039Z,100144.22
2023-05-10T08:06:27.539Z,100143.66
2023-05-10T08:08:56.609Z,100148.78
2023-05-10T08:11:26.489Z,100142.00
2023-05-10T08:13:55.123Z,100147.06
2023-05-10T08:16:23.775Z,100152.97
2023-05-10T08:18:52.401Z,100154.75
2023-05-10T08:21:20.684Z,100160.22
2023-05-10T08:23:48.939Z,100159.31
2023-05-10T08:26:17.267Z,100163.13
2023-05-10T08:28:47.062Z,100157.91
2023-05-10T08:31:15.914Z,100165.56
2023-05-10T08:33:47.152Z,100161.13
2023-05-10T08:36:20.794Z,100161.47
2023-05-10T08:38:50.273Z,100159.78
2023-05-10T08:41:21.951Z,100174.50
2023-05-10T08:43:52.761Z,100175.44
2023-05-10T08:46:22.865Z,100172.59
2023-05-10T08:48:52.856Z,100173.91
2023-05-10T08:51:24.826Z,100175.09
2023-05-10T08:53:53.316Z,100172.59
2023-05-10T08:56:22.284Z,100181.59
2023-05-10T08:58:52.914Z,100177.53
2023-05-10T09:01:22.745Z,100179.97
2023-05-10T09:03:52.801Z,100176.03
2023-05-10T09:06:21.305Z,100182.66
2023-05-10T09:08:49.832Z,100181.22
2023-05-10T09:11:19.552Z,100181.72
2023-05-10T09:13:50.297Z,100182.50
2023-05-10T09:16:22.303Z,100180.63
2023-05-10T09:18:51.349Z,100186.38
2023-05-10T09:21:21.397Z,100186.63
2023-05-10T09:23:52.025Z,100190.06
2023-05-10T09:26:24.713Z,100188.28
2023-05-10T09:28:54.665Z,100197.22
2023-05-10T09:31:26.745Z,100193.13
2023-05-10T09:33:55.743Z,100200.19
2023-05-10T09:36:24.085Z,100208.31
2023-05-10T09:38:53.898Z,100203.41
2023-05-10T09:41:23.720Z,100213.19
2023-05-10T09:43:52.621Z,100208.63
2023-05-10T09:46:21.036Z,100215.53
2023-05-10T09:48:51.248Z,100220.81
2023-05-10T09:51:23.074Z,100221.13
2023-05-10T09:54:11.740Z,100230.66
2023-05-10T09:56:41.587Z,100233.16
2023-05-10T09:59:15.346Z,100226.91
2023-05-10T10:01:43.714Z,100227.75
2023-05-10T10:04:13.819Z,100229.16
2023-05-10T10:06:50.290Z,100226.94
2023-05-10T10:09:19.626Z,100215.72
2023-05-10T10:11:48.083Z,100216.66
2023-05-10T10:14:16.563Z,100217.81
2023-05-10T10:16:59.594Z,100218.16
2023-05-10T10:19:36.318Z,100213.06
2023-05-10T10:22:05.172Z,100209.66
2023-05-10T10:24:33.574Z,100207.66
2023-05-10T10:27:11.021Z,100197.84
2023-05-10T10:29:45.771Z,100206.09
2023-05-10T10:32:29.907Z,100209.16
2023-05-10T10:34:59.704Z,100204.63
2023-05-10T10:37:46.493Z,100203.81
2023-05-10T10:40:29.596Z,100208.75
2023-05-10T10:42:59.288Z,100202.16
2023-05-10T10:45:27.847Z,100201.75
2023-05-10T10:48:23.430Z,100204.31
2023-05-10T10:50:59.952Z,100200.28
2023-05-10T10:53:30.165Z,100193.25
2023-05-10T10:56:14.965Z,100197.88
2023-05-10T10:58:51.154Z,100194.34
2023-05-10T11:01:21.560Z,100188.41
2023-05-10T11:04:21.884Z,100202.84
2023-05-10T11:06:51.670Z,100200.72
2023-05-10T11:09:21.531Z,100197.59
2023-05-10T11:11:56.291Z,100201.75
2023-05-10T11:14:24.898Z,100199.66
2023-05-10T11:16:53.642Z,100183.09
2023-05-10T11:19:24.182Z,100188.63
2023-05-10T11:22:14.499Z,100194.09
2023-05-10T11:24:59.174Z,100195.03
2023-05-10T11:27:27.832Z,100189.25
2023-05-10T11:29:56.070Z,100196.16
2023-05-10T11:32:24.897Z,100200.47
2023-05-10T11:34:53.158Z,100189.16
2023-05-10T11:37:22.810Z,100186.59
2023-05-10T11:39:53.474Z,100186.34
2023-05-10T11:42:21.834Z,100193.22
2023-05-10T11:44:50.342Z,100182.66
2023-05-10T11:47:18.819Z,100189.97
2023-05-10T11:49:47.449Z,100196.41
2023-05-10T11:52:20.225Z,100187.47
2023-05-10T11:54:54.920Z,100189.47
2023-05-10T11:57:28.681Z,100192.84
2023-05-10T11:59:58.560Z,100186.47
2023-05-10T12:02:27.261Z,100189.19
2023-05-10T12:04:57.979Z,100197.75
2023-05-10T12:07:28.440Z,100193.94
2023-05-10T12:10:15.506Z,100203.06
2023-05-10T12:12:45.592Z,100199.66
2023-05-10T12:15:19.124Z,100204.44
2023-05-10T12:17:48.184Z,100206.72
2023-05-10T12:20:18.139Z,100215.56
2023-05-10T12:22:48.449Z,100208.25
2023-05-10T12:25:18.379Z,100224.25
2023-05-10T12:27:57.175Z,100232.75
2023-05-10T12:30:26.808Z,100215.72
2023-05-10T12:32:56.617Z,100229.09
2023-05-10T12:35:25.384Z,100230.00
2023-05-10T12:37:53.873Z,100237.63
2023-05-10T12:40:23.840Z,100236.84
2023-05-10T12:42:53.180Z,100241.69
2023-05-10T12:45:21.721Z,100243.53
2023-05-10T12:47:49.981Z,100249.16
2023-05-10T12:50:18.463Z,100253.09
2023-05-10T12:52:46.900Z,100254.25
2023-05-10T12:55:15.553Z,100262.59
2023-05-10T12:57:45.324Z,100263.03
2023-05-10T13:00:14.808Z,100261.97
2023-05-10T13:02:44.061Z,100256.59
2023-05-10T13:05:14.323Z,100257.16
2023-05-10T13:07:44.869Z,100249.72
2023-05-10T13:10:13.575Z,100249.19
2023-05-10T13:12:42.168Z,100254.38
2023-05-10T13:15:12.436Z,100254.88
2023-05-10T13:17:41.803Z,100259.34
2023-05-10T13:20:11.473Z,100263.06
2023-05-10T13:22:40.719Z,100262.44
2023-05-10T13:25:09.874Z,100260.03
2023-05-10T13:27:38.421Z,100260.56
2023-05-10T13:30:08.092Z,100265.31
2023-05-10T13:32:38.067Z,100263.66
2023-05-10T13:35:07.443Z,100256.28
2023-05-10T13:37:38.316Z,100252.44
2023-05-10T13:40:08.167Z,100246.81
2023-05-10T13:42:36.539Z,100254.88
2023-05-10T13:45:05.259Z,100253.59
2023-05-10T13:47:34.564Z,100254.09
2023-05-10T13:50:04.416Z,100252.69
2023-05-10T13:52:32.912Z,100258.47
2023-05-10T13:55:01.284Z,100263.13
2023-05-10T13:57:31.247Z,100262.22
2023-05-10T13:59:59.624Z,100272.19
2023-05-10T14:02:28.681Z,100274.50
2023-05-10T14:04:57.105Z,100285.81
2023-05-10T14:07:26.936Z,100295.97
2023-05-10T14:09:55.324Z,100298.06
2023-05-10T14:12:23.611Z,100292.38
2023-05-10T14:14:52.184Z,100299.75
2023-05-10T14:17:20.447Z,100297.97
2023-05-10T14:19:48.785Z,100313.81
2023-05-10T14:22:17.095Z,100304.81
2023-05-10T14:24:47.920Z,100318.22
2023-05-10T14:27:16.942Z,100326.38
2023-05-10T14:29:45.166Z,100319.44
2023-05-10T14:32:13.547Z,100321.72
2023-05-10T14:34:41.955Z,100314.88
2023-05-10T14:37:12.846Z,100310.44
2023-05-10T14:39:41.258Z,100308.06
2023-05-10T14:42:10.930Z,100308.31
2023-05-10T14:44:39.876Z,100300.41
2023-05-10T14:47:08.951Z,100301.69
2023-05-10T14:49:39.351Z,100300.16
2023-05-10T14:52:07.877Z,100303.28
2023-05-10T14:54:36.182Z,100306.97
2023-05-10T14:57:04.496Z,100307.59
2023-05-10T14:59:34.218Z,100312.84
2023-05-10T15:02:02.933Z,100304.44
2023-05-10T15:04:31.945Z,100306.25
2023-05-10T15:07:00.948Z,100306.25
2023-05-10T15:09:29.291Z,100310.81
2023-05-10T15:11:57.534Z,100307.78
2023-05-10T15:14:25.798Z,100314.38
2023-05-10T15:16:55.434Z,100314.94
2023-05-10T15:19:23.785Z,100312.03
2023-05-10T15:21:52.169Z,100320.97
2023-05-10T15:24:20.428Z,100317.00
2023-05-10T15:26:48.615Z,100322.13
2023-05-10T15:29:20.711Z,100318.97
2023-05-10T15:31:49.865Z,100319.66
2023-05-10T15:34:20.205Z,100320.75
2023-05-10T15:36:48.476Z,100327.50
2023-05-10T15:39:16.768Z,100321.03
2023-05-10T15:41:45.003Z,100318.88
2023-05-10T15:44:13.299Z,100330.75
2023-05-10T15:46:41.538Z,100330.41
2023-05-10T15:49:09.813Z,100339.03
2023-05-10T15:51:39.504Z,100340.53
2023-05-10T15:54:08.765Z,100345.06
2023-05-10T15:56:37.206Z,100343.22
2023-05-10T15:59:06.162Z,100350.47
2023-05-10T16:01:34.657Z,100350.06
2023-05-10T16:04:03.036Z,100351.38
2023-05-10T16:06:31.539Z,100350.81
2023-05-10T16:09:01.063Z,100353.91
2023-05-10T16:11:29.464Z,100352.44
2023-05-10T16:13:57.868Z,100362.19
2023-05-10T16:16:26.361Z,100364.63
2023-05-10T16:18:54.881Z,100373.16
2023-05-10T16:21:23.282Z,100373.69
2023-05-10T16:23:51.655Z,100379.00
2023-05-10T16:26:21.994Z,100382.50
2023-05-10T16:28:50.429Z,100382.63
2023-05-10T16:31:20.172Z,100384.31
2023-05-10T16:33:48.490Z,100402.78
2023-05-10T16:36:16.794Z,100399.78
2023-05-10T16:38:45.057Z,100404.34
2023-05-10T16:41:13.325Z,100402.09
2023-05-10T16:43:43.070Z,100403.22
2023-05-10T16:46:11.919Z,100409.00
2023-05-10T16:48:40.322Z,100414.13
2023-05-10T16:51:09.191Z,100417.81
2023-05-10T16:53:37.862Z,100422.91
2023-05-10T16:56:06.373Z,100417.06
2023-05-10T16:58:35.383Z,100424.41
2023-05-10T17:01:05.262Z,100429.03
2023-05-10T17:03:33.971Z,100428.72
2023-05-10T17:06:02.468Z,100427.38
2023-05-10T17:08:30.683Z,100426.63
2023-05-10T17:11:02.452Z,100425.38
2023-05-10T17:13:31.948Z,100429.38
2023-05-10T17:16:03.635Z,100426.56
2023-05-10T17:18:33.648Z,100434.09
2023-05-10T17:21:01.943Z,100437.47
2023-05-10T17:23:30.325Z,100426.47
2023-05-10T17:26:01.491Z,100426.84
2023-05-10T17:28:30.459Z,100424.03
2023-05-10T17:30:59.185Z,100427.53
2023-05-10T17:33:27.848Z,100429.81
2023-05-10T17:35:58.330Z,100431.13
2023-05-10T17:38:27.586Z,100442.03
2023-05-10T17:40:56.675Z,100439.75
2023-05-10T17:43:26.437Z,100436.91
2023-05-10T17:45:55.249Z,100433.72
2023-05-10T17:48:25.257Z,100440.00
2023-05-10T17:50:54.048Z,100449.44
2023-05-10T17:53:24.095Z,100443.44
2023-05-10T17:55:54.536Z,100436.09
2023-05-10T17:58:23.723Z,100453.16
2023-05-10T18:00:53.796Z,100453.50
2023-05-10T18:03:22.721Z,100453.31
2023-05-10T18:05:51.524Z,100460.97
2023-05-10T18:08:27.125Z,100458.16
2023-05-10T18:10:57.215Z,100468.06
2023-05-10T18:13:26.333Z,100468.97
2023-05-10T18:15:57.797Z,100471.88
2023-05-10T18:18:26.812Z,100476.84
2023-05-10T18:20:57.874Z,100478.81
2023-05-10T18:23:27.348Z,100474.22
2023-05-10T18:25:58.087Z,100476.34
2023-05-10T18:28:28.596Z,100477.66
2023-05-10T18:30:57.928Z,100482.16
2023-05-10T18:33:27.400Z,100485.16
2023-05-10T18:35:57.830Z,100489.03
2023-05-10T18:38:27.625Z,100485.28
2023-05-10T18:40:58.046Z,100491.97
2023-05-10T18:43:28.230Z,100483.47
2023-05-10T18:45:57.505Z,100491.09
2023-05-10T18:48:27.444Z,100497.09
2023-05-10T18:50:57.551Z,100504.38
2023-05-10T18:53:26.667Z,100509.41
2023-05-10T18:56:01.955Z,100505.84
2023-05-10T18:58:32.799Z,100510.94
2023-05-10T19:01:02.583Z,100515.66
2023-05-10T19:03:31.930Z,100515.47
2023-05-10T19:06:00.430Z,100519.94
2023-05-10T19:08:28.694Z,100521.00
2023-05-10T19:10:57.006Z,100523.53
2023-05-10T19:13:28.336Z,100525.63
2023-05-10T19:16:06.907Z,100525.16
2023-05-10T19:18:36.323Z,100519.28
2023-05-10T19:21:08.222Z,100545.03
2023-05-10T19:23:39.258Z,100537.47
2023-05-10T19:26:08.403Z,100541.75
2023-05-10T19:28:38.458Z,100535.47
2023-05-10T19:31:06.994Z,100532.91
2023-05-10T19:33:38.266Z,100534.16
2023-05-10T19:36:09.157Z,100535.66
2023-05-10T19:38:38.332Z,100545.13
2023-05-10T19:41:06.689Z,100538.22
2023-05-10T19:43:36.825Z,100543.06
2023-05-10T19:46:07.000Z,100546.25
2023-05-10T19:48:35.508Z,100546.47
2023-05-10T19:51:06.868Z,100542.03
2023-05-10T19:53:36.923Z,100543.91
2023-05-10T19:56:06.376Z,100549.28
2023-05-10T19:58:35.365Z,100545.09
2023-05-10T20:01:05.877Z,100541.34
2023-05-10T20:03:35.973Z,100544.53
2023-05-10T20:06:05.056Z,100540.09
2023-05-10T20:08:33.338Z,100539.03
2023-05-10T20:11:03.793Z,100534.59
2023-05-10T20:13:32.314Z,100541.38
2023-05-10T20:16:00.780Z,100542.63
2023-05-10T20:18:29.371Z,100539.50
2023-05-10T20:21:00.505Z,100534.25
2023-05-10T20:23:28.868Z,100539.34
2023-05-10T20:25:58.434Z,100534.03
2023-05-10T20:28:27.269Z,100533.78
2023-05-10T20:30:56.599Z,100536.72
2023-05-10T20:33:25.151Z,100539.63
2023-05-10T20:35:53.422Z,100545.94
2023-05-10T20:38:23.091Z,100536.19
2023-05-10T20:40:51.294Z,100534.53
2023-05-10T20:43:21.459Z,100533.91
2023-05-10T20:45:50.168Z,100526.53
2023-05-10T20:48:19.767Z,100537.56
2023-05-10T20:50:48.176Z,100537.16
2023-05-10T20:53:18.429Z,100531.66
2023-05-10T20:55:48.854Z,100526.38
2023-05-10T20:58:17.114Z,100528.91
2023-05-10T21:00:45.345Z,100524.50
2023-05-10T21:03:15.106Z,100523.63
2023-05-10T21:05:43.590Z,100531.03
2023-05-10T21:08:11.952Z,100525.31
2023-05-10T21:10:40.254Z,100534.81
2023-05-10T21:13:10.035Z,100532.72
2023-05-10T21:15:38.291Z,100530.84
2023-05-10T21:18:06.964Z,100527.28
2023-05-10T21:20:35.278Z,100538.09
2023-05-10T21:23:03.645Z,100531.81
2023-05-10T21:25:31.901Z,100528.44
2023-05-10T21:28:00.511Z,100537.75
2023-05-10T21:30:30.321Z,100536.91
2023-05-10T21:32:59.851Z,100544.53
2023-05-10T21:35:28.359Z,100547.50
2023-05-10T21:37:56.738Z,100545.44
2023-05-10T21:40:25.200Z,100538.72
2023-05-10T21:42:53.478Z,100535.53
2023-05-10T21:45:21.939Z,100543.53
2023-05-10T21:47:51.651Z,100541.63
2023-05-10T21:50:20.401Z,100544.16
2023-05-10T21:52:48.752Z,100540.34
2023-05-10T21:55:17.147Z,100540.75
2023-05-10T21:57:45.820Z,100542.03
2023-05-10T22:00:16.339Z,100540.34
2023-05-10T22:02:44.851Z,100534.66
2023-05-10T22:05:14.677Z,100545.44
2023-05-10T22:07:42.903Z,100545.00
2023-05-10T22:10:11.332Z,100542.03
2023-05-10T22:12:39.811Z,100542.41
2023-05-10T22:15:10.823Z,100550.88
2023-05-10T22:17:40.532Z,100550.03
2023-05-10T22:20:10.254Z,100545.59
2023-05-10T22:22:39.800Z,100551.31
2023-05-10T22:25:08.704Z,100549.22
2023-05-10T22:27:37.061Z,100552.78
2023-05-10T22:30:06.183Z,100556.38
2023-05-10T22:32:35.042Z,100557.63
2023-05-10T22:35:03.517Z,100558.91
2023-05-10T22:37:32.277Z,100567.78
2023-05-10T22:40:01.904Z,100565.03
2023-05-10T22:42:30.978Z,100562.28
2023-05-10T22:44:59.822Z,100565.66
2023-05-10T22:47:28.071Z,100573.66
2023-05-10T22:49:58.261Z,100572.16
2023-05-10T22:52:26.499Z,100570.88
2023-05-10T22:54:54.742Z,100565.41
2023-05-10T22:57:24.578Z,100571.13
2023-05-10T22:59:53.690Z,100569.81
2023-05-10T23:02:22.038Z,100577.00
2023-05-10T23:04:50.366Z,100571.53
2023-05-10T23:07:18.586Z,100574.28
2023-05-10T23:09:47.126Z,100578.69
2023-05-10T23:12:15.335Z,100573.44
2023-05-10T23:14:46.378Z,100573.63
2023-05-10T23:17:14.710Z,100581.84
2023-05-10T23:19:42.985Z,100579.13
2023-05-10T23:22:11.264Z,100575.53
2023-05-10T23:24:39.485Z,100578.69
2023-05-10T23:27:07.743Z,100582.09
2023-05-10T23:29:35.976Z,100574.28
2023-05-10T23:32:06.100Z,100581.69
2023-05-10T23:34:34.309Z,100577.47
2023-05-10T23:37:02.525Z,100585.03
2023-05-10T23:39:30.822Z,100588.84
2023-05-10T23:41:59.095Z,100584.44
2023-05-10T23:44:27.325Z,100578.06
2023-05-10T23:46:55.650Z,100578.31
2023-05-10T23:49:25.323Z,100584.22
2023-05-10T23:51:53.531Z,100577.09
2023-05-10T23:54:21.676Z,100581.50
2023-05-10T23:56:51.566Z,100588.06
2023-05-10T23:59:19.800Z,100571.59
